Time;durP1;ratioP1;P1;durP2;ratioP2;P2;SDS_P1;SDS_P2;PMS_P1;PMS_P2;Temp;Humidity;BMP_temperature;BMP_pressure;BME280_temperature;BME280_humidity;BME280_pressure;Samples;Min_cycle;Max_cycle;Signal;HPM_P1;HPM_P2
2023/04/19 00:02:05;;;;;;;;;;;;;;;15.66;46.90;99866.50;4407816;32;33915;-87
2023/04/19 00:04:36;;;;;;;;;;;;;;;15.70;46.52;99862.69;4412988;32;34968;-87
2023/04/19 00:07:05;;;;;;;;;;;;;;;15.85;47.00;99851.06;4411149;32;34345;-86
2023/04/19 00:09:33;;;;;;;;;;;;;;;15.68;47.07;99848.66;4398311;32;33975;-86
2023/04/19 00:12:01;;;;;;;;;;;;;;;15.88;46.74;99850.88;4399396;32;33325;-83
2023/04/19 00:14:29;;;;;;;;;;;;;;;15.90;46.84;99848.09;4420393;32;34200;-83
2023/04/19 00:16:56;;;;;;;;;;;;;;;15.76;47.22;99841.00;4401739;32;32910;-84
2023/04/19 00:19:24;;;;;;;;;;;;;;;15.82;46.84;99843.28;4405770;32;33260;-83
2023/04/19 00:21:52;;;;;;;;;;;;;;;15.38;48.45;99849.59;4410958;32;34183;-82
2023/04/19 00:24:19;;;;;;;;;;;;;;;15.51;47.89;99853.19;4415717;32;33860;-83
2023/04/19 00:26:47;;;;;;;;;;;;;;;15.64;47.86;99841.81;4417142;32;33633;-82
2023/04/19 00:29:16;;;;;;;;;;;;;;;15.58;48.45;99845.69;4426596;32;34101;-83
2023/04/19 00:31:44;;;;;;;;;;;;;;;15.51;47.59;99842.53;4404163;32;33057;-82
2023/04/19 00:34:11;;;;;;;;;;;;;;;15.32;48.03;99836.66;4416157;32;34440;-84
2023/04/19 00:36:40;;;;;;;;;;;;;;;15.03;47.44;99831.34;4421791;32;33740;-83
2023/04/19 00:39:08;;;;;;;;;;;;;;;15.36;46.76;99838.19;4418091;32;34528;-83
2023/04/19 00:41:37;;;;;;;;;;;;;;;15.30;46.18;99831.47;4418640;32;33522;-83
2023/04/19 00:44:05;;;;;;;;;;;;;;;15.29;45.44;99840.41;4405719;32;33021;-83
2023/04/19 00:46:32;;;;;;;;;;;;;;;15.24;45.73;99837.16;4420988;32;33303;-83
2023/04/19 00:49:00;;;;;;;;;;;;;;;15.26;45.94;99834.41;4405191;32;33151;-83
2023/04/19 00:51:27;;;;;;;;;;;;;;;15.31;46.65;99835.81;4404569;32;33341;-83
2023/04/19 00:53:55;;;;;;;;;;;;;;;15.38;46.32;99828.31;4417518;32;34012;-83
2023/04/19 00:56:23;;;;;;;;;;;;;;;15.50;45.55;99824.88;4396005;32;32789;-83
2023/04/19 00:58:52;;;;;;;;;;;;;;;15.53;45.37;99829.16;4406027;32;34302;-83
2023/04/19 01:01:21;;;;;;;;;;;;;;;15.70;44.45;99815.63;4404045;32;32763;-82
2023/04/19 01:03:50;;;;;;;;;;;;;;;15.70;45.01;99815.63;4416953;32;33908;-83
2023/04/19 01:06:19;;;;;;;;;;;;;;;15.80;44.04;99815.91;4404294;32;31731;-82
2023/04/19 01:08:47;;;;;;;;;;;;;;;15.64;44.78;99816.03;4413027;32;33898;-82
2023/04/19 01:11:15;;;;;;;;;;;;;;;15.65;44.88;99819.56;4416992;32;34723;-82
2023/04/19 01:13:42;;;;;;;;;;;;;;;15.59;45.12;99813.66;4420125;32;34177;-82
2023/04/19 01:16:10;;;;;;;;;;;;;;;15.59;44.42;99813.66;4418946;32;34063;-82
2023/04/19 01:18:39;;;;;;;;;;;;;;;15.57;44.88;99810.25;4425582;32;34206;-82
2023/04/19 01:21:07;;;;;;;;;;;;;;;15.62;44.39;99813.47;4411177;32;33534;-83
2023/04/19 01:23:35;;;;;;;;;;;;;;;15.32;45.85;99810.91;4403778;32;33423;-82
2023/04/19 01:26:03;;;;;;;;;;;;;;;15.18;45.94;99818.91;4421404;32;33363;-84
2023/04/19 01:28:30;;;;;;;;;;;;;;;15.32;46.12;99810.06;4418713;32;34072;-83
2023/04/19 01:30:58;;;;;;;;;;;;;;;15.31;45.54;99805.72;4402979;32;33783;-83
2023/04/19 01:33:26;;;;;;;;;;;;;;;15.33;45.38;99796.69;4403432;32;32786;-83
2023/04/19 01:35:53;;;;;;;;;;;;;;;15.45;44.68;99792.38;4418360;32;34033;-83
2023/04/19 01:38:21;;;;;;;;;;;;;;;15.23;45.79;99805.31;4403221;32;32650;-82
2023/04/19 01:40:48;;;;;;;;;;;;;;;15.15;46.18;99794.34;4420810;32;34466;-82
2023/04/19 01:43:16;;;;;;;;;;;;;;;15.23;45.76;99795.53;4409774;32;33304;-82
2023/04/19 01:45:44;;;;;;;;;;;;;;;15.24;46.06;99801.72;4417263;32;32998;-82
2023/04/19 01:48:12;;;;;;;;;;;;;;;15.02;46.29;99787.13;4406605;32;33009;-83
2023/04/19 01:50:39;;;;;;;;;;;;;;;15.18;45.98;99794.13;4416889;32;33055;-83
2023/04/19 01:53:07;;;;;;;;;;;;;;;15.00;46.18;99788.13;4405872;32;33570;-83
2023/04/19 01:55:35;;;;;;;;;;;;;;;14.84;46.09;99788.25;4408196;32;33105;-83
2023/04/19 01:58:03;;;;;;;;;;;;;;;14.75;46.95;99794.13;4401931;32;33182;-83
2023/04/19 02:00:32;;;;;;;;;;;;;;;14.79;46.84;99790.34;4398021;32;32795;-82
2023/04/19 02:03:03;;;;;;;;;;;;;;;14.80;47.19;99789.38;4414093;32;34245;-83
2023/04/19 02:05:31;;;;;;;;;;;;;;;14.74;47.07;99787.97;4407627;32;32326;-83
2023/04/19 02:08:00;;;;;;;;;;;;;;;14.83;46.58;99781.22;4414284;32;34244;-82
2023/04/19 02:10:29;;;;;;;;;;;;;;;14.73;46.66;99788.06;4405459;32;34361;-83
2023/04/19 02:12:57;;;;;;;;;;;;;;;14.59;46.66;99784.44;4416258;32;33811;-83
2023/04/19 02:15:26;;;;;;;;;;;;;;;14.56;47.34;99787.25;4404053;32;31993;-83
2023/04/19 02:17:54;;;;;;;;;;;;;;;14.55;47.39;99782.06;4415848;32;34580;-83
2023/04/19 02:20:23;;;;;;;;;;;;;;;14.63;47.45;99781.59;4417276;32;33724;-83
2023/04/19 02:22:51;;;;;;;;;;;;;;;14.64;47.59;99781.50;4419094;32;34480;-82
2023/04/19 02:25:18;;;;;;;;;;;;;;;14.54;48.07;99786.50;4419386;32;32078;-83
2023/04/19 02:27:46;;;;;;;;;;;;;;;14.49;48.52;99788.59;4402901;32;34520;-84
2023/04/19 02:30:14;;;;;;;;;;;;;;;14.54;48.66;99778.53;4414040;32;35303;-83
2023/04/19 02:32:41;;;;;;;;;;;;;;;14.47;48.82;99779.81;4421221;32;35166;-83
2023/04/19 02:35:11;;;;;;;;;;;;;;;14.65;48.50;99777.03;4417215;32;32652;-83
2023/04/19 02:37:39;;;;;;;;;;;;;;;14.77;47.81;99763.00;4407199;32;33239;-83
2023/04/19 02:40:06;;;;;;;;;;;;;;;14.59;48.56;99762.31;4400730;32;32931;-82
2023/04/19 02:42:34;;;;;;;;;;;;;;;14.85;47.88;99758.91;4404452;32;34270;-84
2023/04/19 02:45:02;;;;;;;;;;;;;;;14.87;47.80;99756.16;4396672;32;32191;-83
2023/04/19 02:47:29;;;;;;;;;;;;;;;14.87;48.05;99756.16;4387124;32;33433;-83
2023/04/19 02:49:58;;;;;;;;;;;;;;;14.50;49.58;99760.22;4402816;32;33591;-85
2023/04/19 02:52:26;;;;;;;;;;;;;;;14.65;48.87;99750.47;4427717;32;33390;-84
2023/04/19 02:54:54;;;;;;;;;;;;;;;14.57;49.15;99751.78;4393936;32;32073;-84
2023/04/19 02:57:22;;;;;;;;;;;;;;;14.63;49.14;99749.72;4402039;32;33426;-84
2023/04/19 02:59:50;;;;;;;;;;;;;;;14.73;48.47;99749.03;4405659;32;34070;-84
2023/04/19 03:02:17;;;;;;;;;;;;;;;14.84;47.84;99741.25;4425846;32;33739;-84
2023/04/19 03:04:48;;;;;;;;;;;;;;;14.91;47.49;99736.41;4401025;32;33149;-83
2023/04/19 03:07:16;;;;;;;;;;;;;;;14.80;48.08;99736.22;4412401;32;34044;-83
2023/04/19 03:09:44;;;;;;;;;;;;;;;14.89;47.34;99732.97;4403717;32;34270;-83
2023/04/19 03:12:12;;;;;;;;;;;;;;;14.75;47.95;99736.50;4399223;32;33881;-83
2023/04/19 03:14:39;;;;;;;;;;;;;;;14.72;48.19;99730.53;4402054;32;31766;-83
2023/04/19 03:17:08;;;;;;;;;;;;;;;14.86;47.49;99730.53;4405798;32;32991;-83
2023/04/19 03:19:36;;;;;;;;;;;;;;;14.78;47.65;99730.16;4405560;32;33021;-84
2023/04/19 03:22:04;;;;;;;;;;;;;;;14.73;47.76;99721.63;4416225;32;35611;-84
2023/04/19 03:24:34;;;;;;;;;;;;;;;14.70;47.31;99727.09;4412829;32;33354;-83
2023/04/19 03:27:05;;;;;;;;;;;;;;;14.69;47.35;99714.78;4389264;32;33342;-82
2023/04/19 03:29:34;;;;;;;;;;;;;;;14.68;47.56;99723.69;4408705;32;33233;-82
2023/04/19 03:32:02;;;;;;;;;;;;;;;14.64;47.97;99722.19;4429184;32;33804;-82
2023/04/19 03:34:30;;;;;;;;;;;;;;;14.40;48.78;99714.72;4413971;32;33746;-84
2023/04/19 03:36:58;;;;;;;;;;;;;;;14.36;49.03;99718.50;4418883;32;33245;-83
2023/04/19 03:39:27;;;;;;;;;;;;;;;14.22;49.26;99710.53;4433171;32;34094;-84
2023/04/19 03:41:56;;;;;;;;;;;;;;;14.12;49.85;99722.66;4419730;32;34910;-83
2023/04/19 03:44:24;;;;;;;;;;;;;;;14.07;49.81;99720.25;4418906;32;33412;-85
2023/04/19 03:46:52;;;;;;;;;;;;;;;14.29;49.17;99712.72;4401620;32;33705;-85
2023/04/19 03:49:21;;;;;;;;;;;;;;;14.12;50.01;99730.59;4410662;32;33466;-85
2023/04/19 03:51:49;;;;;;;;;;;;;;;14.19;49.71;99716.00;4414361;32;34122;-85
2023/04/19 03:54:17;;;;;;;;;;;;;;;14.14;49.37;99716.28;4415085;32;33314;-86
2023/04/19 03:56:45;;;;;;;;;;;;;;;14.07;49.68;99710.50;4401329;32;33210;-86
2023/04/19 03:59:15;;;;;;;;;;;;;;;13.69;50.11;99714.53;4415898;32;34041;-86
2023/04/19 04:01:45;;;;;;;;;;;;;;;13.69;50.00;99719.84;4417115;32;35139;-86
2023/04/19 04:04:15;;;;;;;;;;;;;;;13.73;49.74;99713.44;4415341;32;32583;-86
2023/04/19 04:06:45;;;;;;;;;;;;;;;13.66;50.18;99715.56;4404217;32;32777;-86
2023/04/19 04:09:12;;;;;;;;;;;;;;;13.52;50.77;99724.31;4402146;32;33900;-84
2023/04/19 04:11:40;;;;;;;;;;;;;;;13.44;51.12;99715.97;4410649;32;34692;-84
2023/04/19 04:14:09;;;;;;;;;;;;;;;13.53;50.67;99723.41;4404264;32;33312;-85
2023/04/19 04:16:37;;;;;;;;;;;;;;;13.58;50.20;99718.69;4416492;32;33833;-84
2023/04/19 04:19:07;;;;;;;;;;;;;;;13.47;50.12;99715.75;4409303;32;33988;-84
2023/04/19 04:21:37;;;;;;;;;;;;;;;13.41;50.69;99708.16;4402742;32;33472;-84
2023/04/19 04:24:06;;;;;;;;;;;;;;;13.49;50.51;99710.38;4404779;32;34313;-84
2023/04/19 04:26:38;;;;;;;;;;;;;;;13.54;50.37;99714.47;4404982;32;33127;-83
2023/04/19 04:29:07;;;;;;;;;;;;;;;13.60;50.18;99709.78;4408850;32;33729;-84
2023/04/19 04:31:35;;;;;;;;;;;;;;;13.76;49.81;99711.44;4402171;32;32865;-84
2023/04/19 04:34:03;;;;;;;;;;;;;;;14.03;49.14;99711.63;4418315;32;32792;-83
2023/04/19 04:36:41;;;;;;;;;;;;;;;14.03;49.48;99714.28;4400989;32;34005;-83
2023/04/19 04:39:17;;;;;;;;;;;;;;;14.29;48.53;99711.84;4395223;32;33986;-83
2023/04/19 04:41:50;;;;;;;;;;;;;;;14.32;47.28;99699.25;4415850;32;35525;-83
2023/04/19 04:44:21;;;;;;;;;;;;;;;14.21;47.53;99703.50;4427616;32;33647;-82
2023/04/19 04:46:49;;;;;;;;;;;;;;;14.30;48.04;99702.97;4391740;32;32972;-83
2023/04/19 04:49:18;;;;;;;;;;;;;;;14.53;46.57;99707.75;4404239;32;33663;-82
2023/04/19 04:51:50;;;;;;;;;;;;;;;14.63;46.34;99709.84;4417939;32;33336;-82
2023/04/19 04:54:18;;;;;;;;;;;;;;;14.50;46.99;99709.75;4417929;32;32012;-83
2023/04/19 04:56:47;;;;;;;;;;;;;;;14.60;46.72;99708.22;4420554;32;33283;-82
2023/04/19 04:59:20;;;;;;;;;;;;;;;14.64;47.05;99706.22;4401666;32;33711;-82
2023/04/19 05:01:49;;;;;;;;;;;;;;;14.60;47.59;99698.44;4421493;32;36296;-82
2023/04/19 05:04:18;;;;;;;;;;;;;;;14.71;47.97;99702.22;4417755;32;32753;-82
2023/04/19 05:06:46;;;;;;;;;;;;;;;14.93;47.66;99699.09;4408032;32;33570;-83
2023/04/19 05:09:17;;;;;;;;;;;;;;;14.87;48.09;99694.16;4413154;32;33615;-84
2023/04/19 05:11:45;;;;;;;;;;;;;;;14.78;48.76;99699.09;4428096;32;33576;-83
2023/04/19 05:14:15;;;;;;;;;;;;;;;14.84;49.21;99697.88;4428837;32;33316;-83
2023/04/19 05:16:57;;;;;;;;;;;;;;;15.06;48.76;99689.41;4419461;32;34694;-84
2023/04/19 05:19:25;;;;;;;;;;;;;;;15.18;48.38;99693.06;4425769;32;33856;-83
2023/04/19 05:21:54;;;;;;;;;;;;;;;15.21;48.40;99690.22;4406398;32;33006;-82
2023/04/19 05:24:22;;;;;;;;;;;;;;;15.15;49.31;99693.28;4421866;32;34155;-82
2023/04/19 05:26:51;;;;;;;;;;;;;;;15.37;48.50;99697.09;4413407;32;32961;-82
2023/04/19 05:29:21;;;;;;;;;;;;;;;15.41;47.55;99691.56;4417142;32;33067;-82
2023/04/19 05:31:50;;;;;;;;;;;;;;;15.39;47.82;99686.34;4418836;32;33947;-82
2023/04/19 05:34:18;;;;;;;;;;;;;;;15.47;47.98;99689.34;4398955;32;32012;-82
2023/04/19 05:36:50;;;;;;;;;;;;;;;15.72;47.77;99693.97;4409370;32;33016;-82
2023/04/19 05:39:18;;;;;;;;;;;;;;;15.80;47.24;99688.09;4409568;32;32863;-83
2023/04/19 05:41:54;;;;;;;;;;;;;;;15.93;46.59;99689.00;4420772;32;33602;-82
2023/04/19 05:44:22;;;;;;;;;;;;;;;16.24;46.32;99678.94;4435860;32;32404;-82
2023/04/19 05:46:50;;;;;;;;;;;;;;;16.49;45.93;99678.91;4434672;32;34874;-82
2023/04/19 05:49:20;;;;;;;;;;;;;;;16.47;45.70;99688.81;4418290;32;35570;-82
2023/04/19 05:54:34;;;;;;;;;;;;;;;16.68;45.97;99674.97;4421883;32;32623;-82
2023/04/19 05:57:03;;;;;;;;;;;;;;;16.94;44.60;99681.97;4416366;32;32785;-82
2023/04/19 05:59:31;;;;;;;;;;;;;;;16.43;44.75;99683.84;4430071;32;33658;-82
2023/04/19 06:02:03;;;;;;;;;;;;;;;16.78;45.05;99676.03;4403764;32;33976;-82
2023/04/19 06:04:32;;;;;;;;;;;;;;;16.72;44.79;99674.66;4406816;32;32575;-82
2023/04/19 06:07:00;;;;;;;;;;;;;;;16.75;44.25;99681.56;4418956;32;33585;-82
2023/04/19 06:09:29;;;;;;;;;;;;;;;16.31;44.74;99680.19;4424451;32;35155;-82
2023/04/19 06:11:57;;;;;;;;;;;;;;;16.44;44.91;99683.72;4412417;32;33475;-82
2023/04/19 06:14:30;;;;;;;;;;;;;;;16.41;45.29;99672.41;4421143;32;34077;-82
2023/04/19 06:16:58;;;;;;;;;;;;;;;16.39;45.78;99680.53;4419684;32;32490;-83
2023/04/19 06:19:26;;;;;;;;;;;;;;;16.59;44.81;99682.63;4415238;32;34884;-82
2023/04/19 06:21:56;;;;;;;;;;;;;;;16.61;45.20;99675.38;4414010;32;33764;-80
2023/04/19 06:24:25;;;;;;;;;;;;;;;17.09;44.36;99670.22;4417511;32;32881;-81
2023/04/19 06:26:53;;;;;;;;;;;;;;;17.17;44.36;99661.62;4415746;32;36497;-81
2023/04/19 06:29:24;;;;;;;;;;;;;;;17.51;43.74;99665.31;4416999;32;33589;-81
2023/04/19 06:31:54;;;;;;;;;;;;;;;17.40;43.61;99658.13;4402200;32;33294;-81
2023/04/19 06:34:23;;;;;;;;;;;;;;;17.67;42.54;99657.03;4417703;32;33487;-79
2023/04/19 06:36:52;;;;;;;;;;;;;;;17.52;42.44;99661.72;4431529;32;34769;-80
2023/04/19 06:39:24;;;;;;;;;;;;;;;17.57;42.08;99659.53;4417197;32;33544;-80
2023/04/19 06:41:52;;;;;;;;;;;;;;;17.56;41.65;99659.63;4415154;32;33696;-80
2023/04/19 06:44:21;;;;;;;;;;;;;;;18.01;41.11;99655.34;4395192;32;32681;-80
2023/04/19 06:46:50;;;;;;;;;;;;;;;17.86;41.50;99654.72;4395585;32;31616;-80
2023/04/19 06:49:21;;;;;;;;;;;;;;;17.99;40.74;99651.09;4408368;32;36931;-80
2023/04/19 06:51:53;;;;;;;;;;;;;;;18.24;40.27;99647.38;4392622;32;32386;-80
2023/04/19 06:54:21;;;;;;;;;;;;;;;18.41;40.43;99649.56;4403924;32;33082;-80
2023/04/19 06:56:50;;;;;;;;;;;;;;;18.36;39.80;99641.91;4419708;32;32333;-80
2023/04/19 06:59:21;;;;;;;;;;;;;;;18.64;39.00;99635.22;4426589;32;32030;-80
2023/04/19 07:01:49;;;;;;;;;;;;;;;18.78;38.96;99641.34;4427774;32;32055;-81
2023/04/19 07:04:18;;;;;;;;;;;;;;;18.75;37.99;99634.41;4394938;32;32496;-81
2023/04/19 07:06:48;;;;;;;;;;;;;;;18.60;38.24;99639.12;4426424;32;33772;-81
2023/04/19 07:09:18;;;;;;;;;;;;;;;19.06;37.64;99635.47;4418380;32;35110;-81
2023/04/19 07:14:22;;;;;;;;;;;;;;;18.90;38.35;99635.87;4412243;32;33344;-81
2023/04/19 07:16:52;;;;;;;;;;;;;;;18.71;38.29;99634.81;4417812;32;34355;-81
2023/04/19 07:19:25;;;;;;;;;;;;;;;18.77;37.85;99642.31;4414993;32;34763;-81
2023/04/19 07:21:54;;;;;;;;;;;;;;;18.77;38.82;99642.31;4416355;32;32967;-81
2023/04/19 07:24:26;;;;;;;;;;;;;;;18.49;39.53;99651.66;4427451;32;32634;-82
2023/04/19 07:26:57;;;;;;;;;;;;;;;18.33;40.97;99644.84;4420396;32;34529;-81
2023/04/19 07:29:25;;;;;;;;;;;;;;;18.45;40.22;99640.34;4403442;32;33271;-81
2023/04/19 07:31:54;;;;;;;;;;;;;;;18.54;40.55;99639.62;4416980;32;33362;-81
2023/04/19 07:34:23;;;;;;;;;;;;;;;18.67;41.15;99643.03;4412214;32;33708;-81
2023/04/19 07:36:51;;;;;;;;;;;;;;;18.59;39.75;99645.44;4405464;32;34029;-82
2023/04/19 07:39:20;;;;;;;;;;;;;;;18.73;40.16;99643.53;4419293;32;34614;-81
2023/04/19 07:41:55;;;;;;;;;;;;;;;18.53;40.55;99645.94;4429329;32;34132;-82
2023/04/19 07:44:22;;;;;;;;;;;;;;;18.58;40.07;99646.44;4416419;32;32179;-81
2023/04/19 07:46:51;;;;;;;;;;;;;;;18.77;41.17;99645.00;4416208;32;34684;-81
2023/04/19 07:49:24;;;;;;;;;;;;;;;19.13;42.28;99642.03;4407924;32;31459;-82
2023/04/19 07:51:54;;;;;;;;;;;;;;;19.09;41.02;99640.56;4416435;32;33083;-84
2023/04/19 07:54:24;;;;;;;;;;;;;;;19.19;40.78;99638.84;4396774;32;32693;-83
2023/04/19 07:56:52;;;;;;;;;;;;;;;19.25;40.15;99636.63;4410029;32;33430;-82
2023/04/19 07:59:21;;;;;;;;;;;;;;;19.77;40.11;99633.16;4404041;32;33558;-82
2023/04/19 08:01:54;;;;;;;;;;;;;;;19.63;39.59;99637.00;4418051;32;32425;-82
2023/04/19 08:04:22;;;;;;;;;;;;;;;19.97;38.32;99634.16;4417376;32;32398;-82
2023/04/19 08:06:52;;;;;;;;;;;;;;;20.28;39.39;99634.22;4410126;32;32224;-82
2023/04/19 08:09:21;;;;;;;;;;;;;;;20.29;38.38;99631.38;4416371;32;35102;-82
2023/04/19 08:11:49;;;;;;;;;;;;;;;19.62;36.38;99635.31;4416067;32;35071;-82
2023/04/19 08:14:18;;;;;;;;;;;;;;;19.89;38.17;99633.94;4385114;32;844846;-83
2023/04/19 08:17:00;;;;;;;;;;;;;;;20.09;36.46;99629.59;4417321;32;33098;-82
2023/04/19 08:19:31;;;;;;;;;;;;;;;20.64;34.33;99625.63;4425041;32;34223;-82
2023/04/19 08:21:59;;;;;;;;;;;;;;;20.57;33.68;99624.50;4419211;32;34612;-83
2023/04/19 08:24:35;;;;;;;;;;;;;;;20.55;33.20;99626.44;4420614;32;33730;-82
2023/04/19 08:27:04;;;;;;;;;;;;;;;20.41;33.37;99626.78;4426352;32;34077;-82
2023/04/19 08:29:33;;;;;;;;;;;;;;;20.18;34.46;99623.44;4420245;32;34289;-82
2023/04/19 08:32:14;;;;;;;;;;;;;;;20.44;33.38;99621.16;4430313;32;34027;-82
2023/04/19 08:34:42;;;;;;;;;;;;;;;20.65;33.96;99621.13;4416339;32;32905;-83
2023/04/19 08:37:10;;;;;;;;;;;;;;;20.42;35.22;99617.78;4425957;32;34105;-83
2023/04/19 08:39:39;;;;;;;;;;;;;;;20.01;34.65;99613.31;4402951;32;33470;-82
2023/04/19 08:42:08;;;;;;;;;;;;;;;20.54;34.45;99608.66;4417999;32;34580;-82
2023/04/19 08:44:57;;;;;;;;;;;;;;;20.25;34.79;99615.69;4406102;32;32491;-82
2023/04/19 08:47:53;;;;;;;;;;;;;;;20.18;35.17;99610.88;4410071;32;33049;-82
2023/04/19 08:50:30;;;;;;;;;;;;;;;20.44;35.31;99607.75;4417241;32;34346;-82
2023/04/19 08:53:11;;;;;;;;;;;;;;;20.15;34.67;99613.81;4420779;32;33479;-82
2023/04/19 08:55:44;;;;;;;;;;;;;;;19.87;36.86;99609.97;4415011;32;31373;-82
2023/04/19 08:58:32;;;;;;;;;;;;;;;20.24;36.03;99612.19;4418953;32;34720;-82
2023/04/19 09:01:19;;;;;;;;;;;;;;;20.01;38.51;99608.78;4407873;32;33214;-82
2023/04/19 09:04:04;;;;;;;;;;;;;;;19.98;39.76;99609.03;4415332;32;34176;-82
2023/04/19 09:06:55;;;;;;;;;;;;;;;19.94;40.59;99603.13;4430493;32;33597;-82
2023/04/19 09:09:24;;;;;;;;;;;;;;;20.10;40.52;99610.69;4420042;32;33409;-82
2023/04/19 09:12:00;;;;;;;;;;;;;;;20.11;40.47;99604.34;4415056;32;37121;-82
2023/04/19 09:14:28;;;;;;;;;;;;;;;20.04;41.09;99605.88;4405872;32;34119;-82
2023/04/19 09:17:13;;;;;;;;;;;;;;;20.42;38.52;99599.00;4403935;32;32324;-82
2023/04/19 09:19:51;;;;;;;;;;;;;;;20.13;39.18;99605.06;4395917;32;34378;-82
2023/04/19 09:22:20;;;;;;;;;;;;;;;20.41;39.01;99597.28;4418317;32;34449;-83
2023/04/19 09:24:48;;;;;;;;;;;;;;;20.56;39.13;99595.13;4419529;32;34643;-82
2023/04/19 09:27:29;;;;;;;;;;;;;;;20.97;38.47;99594.94;4416546;32;33228;-83
2023/04/19 09:30:04;;;;;;;;;;;;;;;21.02;37.45;99599.91;4396854;32;33884;-81
2023/04/19 09:35:22;;;;;;;;;;;;;;;20.48;38.58;99584.22;4417679;32;33575;-82
2023/04/19 09:40:36;;;;;;;;;;;;;;;21.00;37.87;99588.47;4413148;32;33237;-82
2023/04/19 09:43:04;;;;;;;;;;;;;;;20.92;38.22;99581.09;4408170;32;34176;-82
2023/04/19 09:45:45;;;;;;;;;;;;;;;21.17;38.46;99578.88;4408840;32;33010;-83
2023/04/19 09:48:14;;;;;;;;;;;;;;;20.99;38.30;99586.78;4411687;32;33931;-82
2023/04/19 09:50:52;;;;;;;;;;;;;;;21.13;38.69;99580.16;4409204;32;34776;-83
2023/04/19 09:53:27;;;;;;;;;;;;;;;20.64;39.35;99581.87;4426944;32;33609;-82
2023/04/19 09:55:57;;;;;;;;;;;;;;;21.16;38.61;99582.53;4405070;32;33567;-82
2023/04/19 09:58:32;;;;;;;;;;;;;;;20.82;38.42;99579.38;4417191;32;33024;-82
2023/04/19 10:01:17;;;;;;;;;;;;;;;21.28;38.10;99580.59;4417735;32;33203;-83
2023/04/19 10:03:50;;;;;;;;;;;;;;;20.86;38.46;99570.06;4419075;32;31585;-83
2023/04/19 10:06:19;;;;;;;;;;;;;;;21.64;38.43;99568.28;4412704;32;33344;-83
2023/04/19 10:08:52;;;;;;;;;;;;;;;21.71;37.47;99566.75;4406632;32;33244;-83
2023/04/19 10:11:39;;;;;;;;;;;;;;;21.82;36.97;99565.72;4421017;32;36285;-82
2023/04/19 10:14:19;;;;;;;;;;;;;;;22.09;37.29;99560.44;4410734;32;33065;-83
2023/04/19 10:16:47;;;;;;;;;;;;;;;21.69;38.71;99563.34;4396619;32;33574;-83
2023/04/19 10:19:19;;;;;;;;;;;;;;;21.58;37.67;99567.03;4407071;32;33464;-82
2023/04/19 10:21:50;;;;;;;;;;;;;;;21.53;38.55;99572.00;4415903;32;33614;-82
2023/04/19 10:24:22;;;;;;;;;;;;;;;21.78;38.47;99567.00;4420007;32;34857;-83
2023/04/19 10:27:10;;;;;;;;;;;;;;;21.62;38.36;99560.38;4392914;32;32632;-82
2023/04/19 10:29:54;;;;;;;;;;;;;;;21.99;37.76;99565.00;4424381;32;32420;-82
2023/04/19 10:35:00;;;;;;;;;;;;;;;21.63;37.87;99551.31;4421079;32;32326;-83
2023/04/19 10:37:30;;;;;;;;;;;;;;;21.46;38.02;99558.28;4399022;32;34603;-82
2023/04/19 10:40:00;;;;;;;;;;;;;;;21.70;37.68;99555.16;4429859;32;32263;-82
2023/04/19 10:42:54;;;;;;;;;;;;;;;21.80;37.22;99555.12;4407269;32;33038;-83
2023/04/19 10:45:32;;;;;;;;;;;;;;;22.23;36.74;99551.91;4416924;32;33892;-83
2023/04/19 10:48:04;;;;;;;;;;;;;;;22.33;37.88;99549.19;4420295;32;33983;-82
2023/04/19 10:50:55;;;;;;;;;;;;;;;22.77;35.74;99548.53;4430136;32;32255;-82
2023/04/19 10:53:43;;;;;;;;;;;;;;;22.86;34.60;99539.56;4419230;32;33674;-83
2023/04/19 10:56:13;;;;;;;;;;;;;;;22.45;35.50;99547.97;4430765;32;32254;-82
2023/04/19 10:59:06;;;;;;;;;;;;;;;21.95;35.93;99542.91;4409096;32;33696;-83
2023/04/19 11:01:49;;;;;;;;;;;;;;;21.71;37.19;99548.78;4432534;32;30623;-83
2023/04/19 11:04:25;;;;;;;;;;;;;;;21.90;36.31;99539.81;4432774;32;33865;-82
2023/04/19 11:07:00;;;;;;;;;;;;;;;21.98;35.38;99547.12;4417075;32;34131;-83
2023/04/19 11:09:30;;;;;;;;;;;;;;;22.40;35.14;99535.97;4419383;32;33866;-83
2023/04/19 11:12:09;;;;;;;;;;;;;;;22.36;35.96;99535.44;4413582;32;33133;-83
2023/04/19 11:14:44;;;;;;;;;;;;;;;22.65;34.50;99535.28;4419428;32;34860;-84
2023/04/19 11:17:15;;;;;;;;;;;;;;;22.98;33.92;99531.16;4417929;32;35419;-83
2023/04/19 11:19:55;;;;;;;;;;;;;;;22.47;34.47;99527.19;4410747;32;33421;-84
2023/04/19 11:22:34;;;;;;;;;;;;;;;22.53;34.33;99528.41;4408482;32;32007;-82
2023/04/19 11:27:54;;;;;;;;;;;;;;;22.48;35.96;99523.47;4429562;32;34123;-83
2023/04/19 11:30:28;;;;;;;;;;;;;;;21.98;35.85;99533.69;4418511;32;34272;-82
2023/04/19 11:32:59;;;;;;;;;;;;;;;22.03;35.69;99523.38;4417386;32;33897;-82
2023/04/19 11:35:32;;;;;;;;;;;;;;;21.68;36.97;99527.56;4418021;32;34830;-82
2023/04/19 11:38:04;;;;;;;;;;;;;;;20.98;39.03;99526.00;4420901;32;33188;-82
2023/04/19 11:40:36;;;;;;;;;;;;;;;21.11;39.22;99537.31;4405236;32;32791;-82
2023/04/19 11:43:15;;;;;;;;;;;;;;;20.63;40.21;99532.75;4418476;32;34063;-82
2023/04/19 11:45:43;;;;;;;;;;;;;;;20.34;40.88;99531.78;4417144;32;33191;-81
2023/04/19 11:48:16;;;;;;;;;;;;;;;20.40;40.98;99533.91;4419682;32;34775;-82
2023/04/19 11:50:48;;;;;;;;;;;;;;;20.45;41.54;99531.66;4402976;32;33043;-82
2023/04/19 11:55:57;;;;;;;;;;;;;;;19.84;42.81;99539.72;4414479;32;32781;-82
2023/04/19 11:58:30;;;;;;;;;;;;;;;19.82;42.83;99541.69;4417986;32;32958;-82
2023/04/19 12:01:04;;;;;;;;;;;;;;;19.27;44.01;99541.81;4429082;32;33963;-82
2023/04/19 12:03:44;;;;;;;;;;;;;;;19.98;41.87;99536.69;4418834;32;33072;-82
2023/04/19 12:06:18;;;;;;;;;;;;;;;19.95;41.84;99537.81;4429468;32;35293;-82
2023/04/19 12:08:47;;;;;;;;;;;;;;;19.59;43.44;99536.44;4404810;32;32470;-82
2023/04/19 12:11:23;;;;;;;;;;;;;;;19.76;42.95;99548.44;4415443;32;33663;-82
2023/04/19 12:14:12;;;;;;;;;;;;;;;19.85;42.12;99542.28;4416427;32;32309;-81
2023/04/19 12:16:45;;;;;;;;;;;;;;;20.37;42.09;99531.53;4409329;32;34194;-82
2023/04/19 12:19:17;;;;;;;;;;;;;;;20.25;42.00;99532.59;4406900;32;33283;-82
2023/04/19 12:21:50;;;;;;;;;;;;;;;20.03;42.63;99534.44;4434552;32;33589;-83
2023/04/19 12:24:21;;;;;;;;;;;;;;;19.95;42.69;99527.09;4421310;32;33781;-82
2023/04/19 12:26:55;;;;;;;;;;;;;;;19.94;42.89;99529.94;4398704;32;33370;-84
2023/04/19 12:29:31;;;;;;;;;;;;;;;20.25;41.78;99527.22;4421620;32;37189;-82
2023/04/19 12:32:00;;;;;;;;;;;;;;;20.71;40.57;99514.13;4420659;32;34991;-82
2023/04/19 12:34:33;;;;;;;;;;;;;;;20.85;41.46;99517.41;4418678;32;32718;-82
2023/04/19 12:37:06;;;;;;;;;;;;;;;20.48;40.76;99512.66;4423228;32;33679;-81
2023/04/19 12:39:39;;;;;;;;;;;;;;;20.73;40.09;99508.63;4422105;32;32055;-82
2023/04/19 12:42:08;;;;;;;;;;;;;;;20.66;40.50;99511.00;4419412;32;34019;-82
2023/04/19 12:44:39;;;;;;;;;;;;;;;20.89;40.09;99510.78;4395403;32;31922;-82
2023/04/19 12:47:14;;;;;;;;;;;;;;;20.91;40.13;99512.31;4415498;32;35271;-82
2023/04/19 12:49:46;;;;;;;;;;;;;;;21.34;39.51;99510.22;4411143;32;33128;-82
2023/04/19 12:52:15;;;;;;;;;;;;;;;21.41;39.24;99500.59;4403657;32;33289;-82
2023/04/19 12:54:44;;;;;;;;;;;;;;;21.13;39.74;99508.53;4420040;32;32234;-82
2023/04/19 12:57:12;;;;;;;;;;;;;;;21.48;38.66;99497.19;4419858;32;34743;-82
2023/04/19 12:59:44;;;;;;;;;;;;;;;21.66;37.74;99505.37;4411330;32;32392;-82
2023/04/19 13:02:23;;;;;;;;;;;;;;;21.85;37.81;99499.09;4406855;32;32799;-82
2023/04/19 13:04:52;;;;;;;;;;;;;;;21.80;37.75;99489.78;4407974;32;31931;-82
2023/04/19 13:07:27;;;;;;;;;;;;;;;21.18;38.22;99503.56;4427384;32;33865;-82
2023/04/19 13:09:57;;;;;;;;;;;;;;;21.25;37.80;99503.00;4419081;32;33156;-85
2023/04/19 13:12:29;;;;;;;;;;;;;;;21.54;36.79;99494.94;4392057;32;34212;-82
2023/04/19 13:15:05;;;;;;;;;;;;;;;21.67;37.28;99495.47;4411542;32;33149;-82
2023/04/19 13:17:36;;;;;;;;;;;;;;;21.39;37.93;99502.59;4428498;32;32546;-81
2023/04/19 13:20:15;;;;;;;;;;;;;;;20.76;41.23;99502.12;4406108;32;32634;-82
2023/04/19 13:22:43;;;;;;;;;;;;;;;20.84;41.10;99508.50;4429612;32;33690;-82
2023/04/19 13:25:14;;;;;;;;;;;;;;;20.63;41.86;99508.59;4397862;32;33705;-82
2023/04/19 13:27:46;;;;;;;;;;;;;;;21.13;41.39;99496.94;4432902;32;34116;-82